createdAt,value
2023-06-10T00:08:55.344Z,1.22228
2023-06-10T00:18:58.253Z,1.16128
2023-06-10T00:29:01.012Z,1.80632
2023-06-10T00:39:03.560Z,1.35501
2023-06-10T00:49:06.271Z,1.30486
2023-06-10T00:59:08.866Z,1.41199
2023-06-10T01:09:11.619Z,1.62428
2023-06-10T01:19:14.663Z,1.62925
2023-06-10T01:29:17.429Z,1.7742
2023-06-10T01:39:20.164Z,1.57728
2023-06-10T01:49:24.310Z,2.00703
2023-06-10T01:59:26.828Z,1.64151
2023-06-10T02:09:29.534Z,1.60368
2023-06-10T02:19:32.415Z,1.7745
2023-06-10T02:29:35.088Z,1.75575
2023-06-10T02:39:37.655Z,2.22666
2023-06-10T02:49:40.406Z,1.52192
2023-06-10T02:59:42.979Z,1.71331
2023-06-10T03:09:45.977Z,2.10511
2023-06-10T03:19:48.870Z,2.04384
2023-06-10T03:29:51.614Z,1.81792
2023-06-10T03:39:54.259Z,1.97175
2023-06-10T03:49:57.074Z,1.80856
2023-06-10T03:59:59.586Z,2.26953
2023-06-10T04:10:02.267Z,2.63151
2023-06-10T04:20:05.196Z,2.54735
2023-06-10T04:30:07.884Z,2.80413
2023-06-10T04:40:10.407Z,2.62324
2023-06-10T04:50:16.837Z,2.77417
2023-06-10T05:00:19.469Z,2.75673
2023-06-10T05:10:22.267Z,2.63019
2023-06-10T05:20:25.280Z,2.82866
2023-06-10T05:30:27.978Z,2.97647
2023-06-10T05:40:30.480Z,3.08603
2023-06-10T05:50:33.234Z,3.16302
2023-06-10T06:00:38.354Z,3.01649
2023-06-10T06:10:41.436Z,2.84983
2023-06-10T06:20:44.289Z,3.19025
2023-06-10T06:30:47.013Z,2.96544
2023-06-10T06:40:49.509Z,3.37102
2023-06-10T06:50:52.232Z,3.54906
2023-06-10T07:00:55.396Z,3.70042
2023-06-10T07:10:58.201Z,3.68365
2023-06-10T07:21:00.938Z,3.67042
2023-06-10T07:31:03.688Z,3.59365
2023-06-10T07:41:06.460Z,3.49453
2023-06-10T07:51:09.206Z,4.19437
2023-06-10T08:01:11.825Z,4.10726
2023-06-10T08:11:16.239Z,3.87767
2023-06-10T08:21:19.669Z,3.56162
2023-06-10T08:31:23.119Z,3.64944
2023-06-10T08:41:25.891Z,4.09011
2023-06-10T08:51:28.669Z,4.08617
2023-06-10T09:01:31.500Z,4.33726
2023-06-10T09:11:34.556Z,4.22111
2023-06-10T09:21:37.341Z,4.20537
2023-06-10T09:31:40.938Z,4.13244
2023-06-10T09:41:43.800Z,4.44432
2023-06-10T09:51:46.601Z,4.1506
2023-06-10T10:01:49.586Z,4.07947
2023-06-10T10:11:52.473Z,3.84344
2023-06-10T10:21:55.338Z,3.87747
2023-06-10T10:31:58.449Z,4.17519
2023-06-10T10:42:01.271Z,3.83151
2023-06-10T10:52:04.351Z,3.15827
2023-06-10T11:02:07.126Z,3.7891
2023-06-10T11:12:09.975Z,3.23769
2023-06-10T11:22:18.162Z,3.22696
2023-06-10T11:32:21.374Z,3.28248
2023-06-10T11:42:24.346Z,3.3759
2023-06-10T11:52:27.186Z,3.12659
2023-06-10T12:02:30.204Z,2.69506
2023-06-10T12:12:32.865Z,2.69325
2023-06-10T12:22:35.687Z,2.95152
2023-06-10T12:32:38.672Z,2.99314
2023-06-10T12:42:41.577Z,2.68875
2023-06-10T12:52:44.265Z,1.90226
2023-06-10T13:02:50.847Z,2.61427
2023-06-10T13:12:53.880Z,2.14961
2023-06-10T13:22:56.760Z,2.42985
2023-06-10T13:32:59.885Z,2.2471
2023-06-10T13:43:02.737Z,2.27738
2023-06-10T13:53:05.972Z,2.35034
2023-06-10T14:03:08.697Z,2.17914
2023-06-10T14:13:12.260Z,2.00274
2023-06-10T14:23:15.143Z,1.92948
2023-06-10T14:33:18.712Z,2.17009
2023-06-10T14:43:23.935Z,2.17028
2023-06-10T14:53:26.825Z,2.01784
2023-06-10T15:03:29.929Z,1.96838
2023-06-10T15:13:32.906Z,1.81813
2023-06-10T15:23:36.063Z,1.70664
2023-06-10T15:33:39.274Z,2.12316
2023-06-10T15:43:42.186Z,2.26035
2023-06-10T15:53:45.018Z,1.70421
2023-06-10T16:03:48.279Z,1.97306
2023-06-10T16:13:51.234Z,1.70277
2023-06-10T16:23:54.322Z,2.08202
2023-06-10T16:33:57.427Z,1.68926
2023-06-10T16:44:03.657Z,2.04916
2023-06-10T16:54:07.546Z,1.64834
2023-06-10T17:04:12.821Z,2.25216
2023-06-10T17:14:16.365Z,2.32784
2023-06-10T17:24:19.423Z,2.35395
2023-06-10T17:34:22.808Z,2.34105
2023-06-10T17:44:25.706Z,2.56532
2023-06-10T17:54:28.424Z,2.92548
2023-06-10T20:01:33.989Z,5.20923
2023-06-10T20:11:41.856Z,4.89246
2023-06-10T20:21:44.650Z,4.51604
2023-06-10T20:31:47.278Z,5.05834
2023-06-10T20:41:50.142Z,4.63529
2023-06-10T20:51:52.941Z,4.60411
2023-06-10T21:01:56.171Z,4.50552
2023-06-10T21:11:58.998Z,3.94715
2023-06-10T21:22:04.934Z,4.97628
2023-06-10T21:32:08.817Z,4.60059
2023-06-10T21:42:13.315Z,5.53417
2023-06-10T21:52:16.529Z,5.42452
2023-06-10T22:02:19.912Z,6.6587
2023-06-10T22:12:22.728Z,6.049
2023-06-10T22:22:25.465Z,5.98429
2023-06-10T22:32:28.113Z,5.99451
2023-06-10T22:42:31.181Z,5.76968
2023-06-10T22:52:33.988Z,6.28537
2023-06-10T23:02:37.501Z,5.92492
2023-06-10T23:12:42.940Z,5.77382
2023-06-10T23:22:45.587Z,4.78015
2023-06-10T23:32:48.495Z,4.86315
2023-06-10T23:42:53.065Z,5.20137
2023-06-10T23:52:55.879Z,5.34539
